createdAt,value
2023-11-24T00:00:59.995Z,8.90
2023-11-24T00:03:26.990Z,8.90
2023-11-24T00:05:53.916Z,8.90
2023-11-24T00:08:20.767Z,8.90
2023-11-24T00:10:47.637Z,8.90
2023-11-24T00:13:14.525Z,8.90
2023-11-24T00:15:43.893Z,8.90
2023-11-24T00:18:10.906Z,8.80
2023-11-24T00:20:38.562Z,8.80
2023-11-24T00:23:05.455Z,8.70
2023-11-24T00:25:33.677Z,8.60
2023-11-24T00:28:00.760Z,8.60
2023-11-24T00:30:28.656Z,8.50
2023-11-24T00:32:55.662Z,8.40
2023-11-24T00:35:22.593Z,8.30
2023-11-24T00:37:49.604Z,8.20
2023-11-24T00:40:19.330Z,8.20
2023-11-24T00:42:46.343Z,8.10
2023-11-24T00:45:14.584Z,8.10
2023-11-24T00:47:42.534Z,8.00
2023-11-24T00:50:10.619Z,8.00
2023-11-24T00:52:38.270Z,8.00
2023-11-24T00:55:05.668Z,8.00
2023-11-24T00:57:33.678Z,8.00
2023-11-24T01:00:01.467Z,7.90
2023-11-24T01:02:28.369Z,7.90
2023-11-24T01:04:57.099Z,7.90
2023-11-24T01:07:25.398Z,8.00
2023-11-24T01:09:52.750Z,7.90
2023-11-24T01:12:19.673Z,7.90
2023-11-24T01:14:46.706Z,7.90
2023-11-24T01:17:14.296Z,7.80
2023-11-24T01:19:41.122Z,7.80
2023-11-24T01:22:08.392Z,7.80
2023-11-24T01:24:35.897Z,7.80
2023-11-24T01:27:03.598Z,7.80
2023-11-24T01:29:32.768Z,7.70
2023-11-24T01:31:59.612Z,7.60
2023-11-24T01:34:26.559Z,7.60
2023-11-24T01:36:53.661Z,7.50
2023-11-24T01:39:22.089Z,7.50
2023-11-24T01:41:49.012Z,7.50
2023-11-24T01:44:16.081Z,7.50
2023-11-24T01:46:43.001Z,7.40
2023-11-24T01:49:11.354Z,7.40
2023-11-24T01:51:39.843Z,7.30
2023-11-24T01:54:07.288Z,7.30
2023-11-24T01:56:34.775Z,7.20
2023-11-24T01:59:01.633Z,7.10
2023-11-24T02:01:30.264Z,7.10
2023-11-24T02:03:57.296Z,7.10
2023-11-24T02:06:24.790Z,7.10
2023-11-24T02:08:51.688Z,7.00
2023-11-24T02:11:18.698Z,7.00
2023-11-24T02:13:49.634Z,6.90
2023-11-24T02:16:17.081Z,6.90
2023-11-24T02:18:43.973Z,6.80
2023-11-24T02:21:12.050Z,6.80
2023-11-24T02:23:38.990Z,6.70
2023-11-24T02:26:05.992Z,6.70
2023-11-24T02:28:33.735Z,6.60
2023-11-24T02:31:03.064Z,6.60
2023-11-24T02:33:34.909Z,6.50
2023-11-24T02:36:06.874Z,6.50
2023-11-24T02:38:34.151Z,6.40
2023-11-24T02:41:01.467Z,6.50
2023-11-24T02:43:29.068Z,6.50
2023-11-24T02:45:56.097Z,6.60
2023-11-24T02:48:23.201Z,6.60
2023-11-24T02:50:50.111Z,6.70
2023-11-24T02:53:17.043Z,6.70
2023-11-24T02:55:44.246Z,6.70
2023-11-24T02:58:12.191Z,6.80
2023-11-24T03:00:39.928Z,6.80
2023-11-24T03:03:08.565Z,6.80
2023-11-24T03:05:35.637Z,6.80
2023-11-24T03:08:04.189Z,6.80
2023-11-24T03:10:31.197Z,6.80
2023-11-24T03:12:58.301Z,6.80
2023-11-24T03:15:26.251Z,6.80
2023-11-24T03:17:53.112Z,6.80
2023-11-24T03:20:22.359Z,6.80
2023-11-24T03:22:49.320Z,6.80
2023-11-24T03:25:16.788Z,6.80
2023-11-24T03:27:44.046Z,6.80
2023-11-24T03:30:11.704Z,6.80
2023-11-24T03:32:38.889Z,6.80
2023-11-24T03:35:08.507Z,6.70
2023-11-24T03:37:36.862Z,6.70
2023-11-24T03:40:04.673Z,6.70
2023-11-24T03:42:31.698Z,6.70
2023-11-24T03:44:58.904Z,6.70
2023-11-24T03:47:25.761Z,6.70
2023-11-24T03:49:52.677Z,6.80
2023-11-24T03:52:19.594Z,6.80
2023-11-24T03:54:46.646Z,6.80
2023-11-24T03:57:13.520Z,6.80
2023-11-24T03:59:42.776Z,6.80
2023-11-24T04:02:09.807Z,6.80
2023-11-24T04:04:36.928Z,6.80
2023-11-24T04:07:04.872Z,6.70
2023-11-24T04:09:31.769Z,6.70
2023-11-24T04:11:58.685Z,6.70
2023-11-24T04:14:25.626Z,6.60
2023-11-24T04:16:52.481Z,6.50
2023-11-24T04:19:20.357Z,6.50
2023-11-24T04:21:47.243Z,6.40
2023-11-24T04:24:14.109Z,6.30
2023-11-24T04:26:43.384Z,6.30
2023-11-24T04:29:10.234Z,6.30
2023-11-24T04:31:37.413Z,6.30
2023-11-24T04:34:05.066Z,6.30
2023-11-24T04:36:32.089Z,6.30
2023-11-24T04:38:58.945Z,6.20
2023-11-24T04:41:25.826Z,6.20
2023-11-24T04:43:52.770Z,6.20
2023-11-24T04:46:19.857Z,6.20
2023-11-24T04:48:47.041Z,6.10
2023-11-24T04:51:13.936Z,6.10
2023-11-24T04:53:41.832Z,6.10
2023-11-24T04:56:09.335Z,6.10
2023-11-24T04:58:38.056Z,6.10
2023-11-24T05:01:06.050Z,6.10
2023-11-24T05:03:33.367Z,6.10
2023-11-24T05:06:00.841Z,6.10
2023-11-24T05:08:27.651Z,6.10
2023-11-24T05:10:54.514Z,6.10
2023-11-24T05:13:21.488Z,6.10
2023-11-24T05:15:49.347Z,6.10
2023-11-24T05:18:16.373Z,6.10
2023-11-24T05:20:43.336Z,6.20
2023-11-24T05:23:10.196Z,6.20
2023-11-24T05:25:37.054Z,6.20
2023-11-24T05:28:04.189Z,6.20
2023-11-24T05:30:31.154Z,6.20
2023-11-24T05:32:58.129Z,6.20
2023-11-24T05:35:25.019Z,6.20
2023-11-24T05:37:51.959Z,6.20
2023-11-24T05:40:19.447Z,6.10
2023-11-24T05:42:46.307Z,6.10
2023-11-24T05:45:16.598Z,6.10
2023-11-24T05:47:43.697Z,6.10
2023-11-24T05:50:12.033Z,6.00
2023-11-24T05:52:39.145Z,6.10
2023-11-24T05:55:06.829Z,6.00
2023-11-24T05:57:33.984Z,6.00
2023-11-24T06:00:00.901Z,6.00
2023-11-24T06:02:27.789Z,5.90
2023-11-24T06:04:57.802Z,5.90
2023-11-24T06:07:25.621Z,5.90
2023-11-24T06:09:52.528Z,5.90
2023-11-24T06:12:19.617Z,5.90
2023-11-24T06:14:46.736Z,5.90
2023-11-24T06:17:13.577Z,5.80
2023-11-24T06:19:40.422Z,5.90
2023-11-24T06:22:07.756Z,5.90
2023-11-24T06:24:34.761Z,5.90
2023-11-24T06:27:01.666Z,5.80
2023-11-24T06:29:28.941Z,5.80
2023-11-24T06:31:55.900Z,5.80
2023-11-24T06:34:22.954Z,5.80
2023-11-24T06:36:50.966Z,5.80
2023-11-24T06:39:20.926Z,5.80
2023-11-24T06:41:48.318Z,5.70
2023-11-24T06:44:17.065Z,5.80
2023-11-24T06:46:44.032Z,5.70
2023-11-24T06:49:11.198Z,5.80
2023-11-24T06:51:39.892Z,5.80
2023-11-24T06:54:06.887Z,5.80
2023-11-24T06:56:33.751Z,5.80
2023-11-24T06:59:00.818Z,5.80
2023-11-24T07:01:33.550Z,5.80
2023-11-24T07:04:01.366Z,5.80
2023-11-24T07:06:28.924Z,5.80
2023-11-24T07:08:55.885Z,5.80
2023-11-24T07:11:23.657Z,5.90
2023-11-24T07:13:50.786Z,5.80
2023-11-24T07:16:18.110Z,5.90
2023-11-24T07:18:45.190Z,5.90
2023-11-24T07:21:12.268Z,5.90
2023-11-24T07:23:39.113Z,5.90
2023-11-24T07:26:08.951Z,5.90
2023-11-24T07:28:39.333Z,6.00
2023-11-24T07:31:06.281Z,6.00
2023-11-24T07:33:34.219Z,6.00
2023-11-24T07:36:01.515Z,6.00
2023-11-24T07:38:28.437Z,6.00
2023-11-24T07:40:55.423Z,6.00
2023-11-24T07:43:22.431Z,6.00
2023-11-24T07:45:52.093Z,6.00
2023-11-24T07:48:19.373Z,6.10
2023-11-24T07:50:46.244Z,6.10
2023-11-24T07:53:14.894Z,6.10
2023-11-24T07:55:42.736Z,6.10
2023-11-24T07:58:10.199Z,6.10
2023-11-24T08:00:37.908Z,6.10
2023-11-24T08:03:05.531Z,6.10
2023-11-24T08:05:32.707Z,6.10
2023-11-24T08:08:04.020Z,6.00
2023-11-24T08:10:30.922Z,6.10
2023-11-24T08:12:59.002Z,6.10
2023-11-24T08:15:28.872Z,6.00
2023-11-24T08:17:58.334Z,6.00
2023-11-24T08:20:25.401Z,5.90
2023-11-24T08:22:52.294Z,5.90
2023-11-24T08:25:19.679Z,5.80
2023-11-24T08:27:47.865Z,5.80
2023-11-24T08:30:15.094Z,5.80
2023-11-24T08:32:45.519Z,5.80
2023-11-24T08:35:13.714Z,6.00
2023-11-24T08:37:40.519Z,6.10
2023-11-24T08:40:14.073Z,6.10
2023-11-24T08:42:40.965Z,6.10
2023-11-24T08:45:08.445Z,6.10
2023-11-24T08:47:35.342Z,6.10
2023-11-24T08:50:02.726Z,6.10
2023-11-24T08:52:29.585Z,6.10
2023-11-24T08:54:56.422Z,6.10
2023-11-24T08:57:23.349Z,6.10
2023-11-24T08:59:50.162Z,6.10
2023-11-24T09:02:19.754Z,6.10
2023-11-24T09:04:46.718Z,6.10
2023-11-24T09:07:13.804Z,6.10
2023-11-24T09:09:42.282Z,6.00
2023-11-24T09:12:09.214Z,5.90
2023-11-24T09:14:39.618Z,5.90
2023-11-24T09:17:09.616Z,5.80
2023-11-24T09:19:36.560Z,5.70
2023-11-24T09:22:05.323Z,5.60
2023-11-24T09:24:32.263Z,5.60
2023-11-24T09:26:59.111Z,5.60
2023-11-24T09:29:27.040Z,5.60
2023-11-24T09:31:54.898Z,5.60
2023-11-24T09:34:22.556Z,5.70
2023-11-24T09:36:51.107Z,5.80
2023-11-24T09:39:18.324Z,5.90
2023-11-24T09:41:52.269Z,6.00
2023-11-24T09:44:19.599Z,6.10
2023-11-24T09:46:51.973Z,6.10
2023-11-24T09:49:24.146Z,6.20
2023-11-24T09:51:51.100Z,6.20
2023-11-24T09:54:19.235Z,6.10
2023-11-24T09:56:46.262Z,6.10
2023-11-24T09:59:14.553Z,6.00
2023-11-24T10:01:41.706Z,6.00
2023-11-24T10:04:10.315Z,6.00
2023-11-24T10:06:40.898Z,6.00
2023-11-24T10:09:11.488Z,5.90
2023-11-24T10:11:39.560Z,6.10
2023-11-24T10:14:13.112Z,6.20
2023-11-24T10:16:43.215Z,6.20
2023-11-24T10:19:19.629Z,6.20
2023-11-24T10:21:52.707Z,6.00
2023-11-24T10:24:19.956Z,5.90
2023-11-24T10:26:46.994Z,5.80
2023-11-24T10:29:15.418Z,5.70
2023-11-24T10:31:42.304Z,5.70
2023-11-24T10:34:09.503Z,5.70
2023-11-24T10:36:36.937Z,5.60
2023-11-24T10:39:07.472Z,5.60
2023-11-24T10:41:41.839Z,5.60
2023-11-24T10:44:12.319Z,5.50
2023-11-24T10:46:45.201Z,5.40
2023-11-24T10:49:21.052Z,5.30
2023-11-24T10:51:59.950Z,5.40
2023-11-24T10:54:35.951Z,5.50
2023-11-24T10:57:05.895Z,5.60
2023-11-24T10:59:36.158Z,5.60
2023-11-24T11:02:07.793Z,5.70
2023-11-24T11:04:37.117Z,5.70
2023-11-24T11:07:15.905Z,5.70
2023-11-24T11:09:52.326Z,5.70
2023-11-24T11:12:30.716Z,5.60
2023-11-24T11:14:57.987Z,5.60
2023-11-24T11:17:26.506Z,5.60
2023-11-24T11:20:00.200Z,5.50
2023-11-24T11:22:34.143Z,5.50
2023-11-24T11:25:26.694Z,5.60
2023-11-24T11:27:56.449Z,5.60
2023-11-24T11:30:27.409Z,5.60
2023-11-24T11:33:13.528Z,5.50
2023-11-24T11:35:43.921Z,5.60
2023-11-24T11:38:15.261Z,5.70
2023-11-24T11:40:45.731Z,5.70
2023-11-24T11:43:16.438Z,5.70
2023-11-24T11:45:53.685Z,5.70
2023-11-24T11:48:21.343Z,5.70
2023-11-24T11:50:58.136Z,5.60
2023-11-24T11:53:26.750Z,5.60
2023-11-24T11:55:57.217Z,5.70
2023-11-24T11:58:25.892Z,5.70
2023-11-24T12:00:54.513Z,5.80
2023-11-24T12:03:24.167Z,5.80
2023-11-24T12:05:55.226Z,5.80
2023-11-24T12:08:25.061Z,5.60
2023-11-24T12:10:51.948Z,5.50
2023-11-24T12:13:18.828Z,5.50
2023-11-24T12:15:45.875Z,5.60
2023-11-24T12:18:16.116Z,5.60
2023-11-24T12:20:45.283Z,5.70
2023-11-24T12:23:14.520Z,5.70
2023-11-24T12:25:42.731Z,5.70
2023-11-24T12:28:11.298Z,5.70
2023-11-24T12:30:43.105Z,5.70
2023-11-24T12:33:20.859Z,5.70
2023-11-24T12:35:53.107Z,5.70
2023-11-24T12:38:21.299Z,5.70
2023-11-24T12:40:50.940Z,5.80
2023-11-24T12:43:20.195Z,5.80
2023-11-24T12:45:52.949Z,5.90
2023-11-24T12:48:20.719Z,5.90
2023-11-24T12:50:48.744Z,5.90
2023-11-24T12:53:16.654Z,5.90
2023-11-24T12:55:44.139Z,5.90
2023-11-24T12:58:12.076Z,5.90
2023-11-24T13:00:39.225Z,6.00
2023-11-24T13:03:09.396Z,6.00
2023-11-24T13:05:39.032Z,6.00
2023-11-24T13:08:06.759Z,6.00
2023-11-24T13:10:35.356Z,6.10
2023-11-24T13:13:02.961Z,6.10
2023-11-24T13:15:30.160Z,6.10
2023-11-24T13:17:57.411Z,6.10
2023-11-24T13:20:30.175Z,6.10
2023-11-24T13:22:57.734Z,6.00
2023-11-24T13:25:28.135Z,6.00
2023-11-24T13:27:55.543Z,6.00
2023-11-24T13:30:26.823Z,6.00
2023-11-24T13:32:54.046Z,6.00
2023-11-24T13:35:21.817Z,6.00
2023-11-24T13:37:50.618Z,5.90
2023-11-24T13:40:21.125Z,5.90
2023-11-24T13:42:48.379Z,5.90
2023-11-24T13:45:17.604Z,5.80
2023-11-24T13:47:45.388Z,5.70
2023-11-24T13:50:12.921Z,5.50
2023-11-24T13:52:40.076Z,5.50
2023-11-24T13:55:07.971Z,5.40
2023-11-24T13:57:36.726Z,5.40
2023-11-24T14:00:07.848Z,5.40
2023-11-24T14:02:37.159Z,5.40
2023-11-24T14:05:05.253Z,5.40
2023-11-24T14:07:32.510Z,5.40
2023-11-24T14:09:59.449Z,5.30
2023-11-24T14:12:26.493Z,5.40
2023-11-24T14:14:53.866Z,5.40
2023-11-24T14:17:21.007Z,5.40
2023-11-24T14:19:48.381Z,5.30
2023-11-24T14:22:16.925Z,5.30
2023-11-24T14:24:45.021Z,5.30
2023-11-24T14:27:13.933Z,5.30
2023-11-24T14:29:41.218Z,5.30
2023-11-24T14:32:08.724Z,5.30
2023-11-24T14:34:36.032Z,5.20
2023-11-24T14:37:03.644Z,5.20
2023-11-24T14:39:33.816Z,5.20
2023-11-24T14:42:00.948Z,5.20
2023-11-24T14:44:28.409Z,5.10
2023-11-24T14:46:56.328Z,5.10
2023-11-24T14:49:23.507Z,5.10
2023-11-24T14:51:51.411Z,5.10
2023-11-24T14:54:19.928Z,5.10
2023-11-24T14:56:49.236Z,5.00
2023-11-24T14:59:16.555Z,5.00
2023-11-24T15:01:44.570Z,5.00
2023-11-24T15:04:18.728Z,4.90
2023-11-24T15:06:51.935Z,4.90
2023-11-24T15:09:19.962Z,4.90
2023-11-24T15:11:49.584Z,4.80
2023-11-24T15:14:16.543Z,4.80
2023-11-24T15:16:58.560Z,4.80
2023-11-24T15:19:27.216Z,4.90
2023-11-24T15:21:56.432Z,4.90
2023-11-24T15:24:24.102Z,4.90
2023-11-24T15:26:52.852Z,4.90
2023-11-24T15:29:19.980Z,4.90
2023-11-24T15:31:47.000Z,4.80
2023-11-24T15:34:14.875Z,4.80
2023-11-24T15:36:42.081Z,4.80
2023-11-24T15:39:34.600Z,4.80
2023-11-24T15:42:03.316Z,4.80
2023-11-24T15:44:34.102Z,4.80
2023-11-24T15:47:06.319Z,4.80
2023-11-24T15:49:35.632Z,4.80
2023-11-24T15:52:08.684Z,4.70
2023-11-24T15:54:36.504Z,4.70
2023-11-24T15:57:06.723Z,4.70
2023-11-24T15:59:38.293Z,4.70
2023-11-24T16:02:07.037Z,4.70
2023-11-24T16:04:35.568Z,4.70
2023-11-24T16:07:08.034Z,4.70
2023-11-24T16:09:38.118Z,4.70
2023-11-24T16:12:13.836Z,4.70
2023-11-24T16:14:41.023Z,4.60
2023-11-24T16:17:11.468Z,4.70
2023-11-24T16:19:38.560Z,4.60
2023-11-24T16:22:06.374Z,4.60
2023-11-24T16:24:34.013Z,4.60
2023-11-24T16:27:00.961Z,4.60
2023-11-24T16:29:27.833Z,4.60
2023-11-24T16:31:55.779Z,4.60
2023-11-24T16:34:24.093Z,4.60
2023-11-24T16:36:51.655Z,4.50
2023-11-24T16:39:18.991Z,4.50
2023-11-24T16:41:47.523Z,4.50
2023-11-24T16:44:14.428Z,4.50
2023-11-24T16:46:43.705Z,4.50
2023-11-24T16:49:13.890Z,4.50
2023-11-24T16:51:41.776Z,4.50
2023-11-24T16:54:08.692Z,4.50
2023-11-24T16:56:36.038Z,4.50
2023-11-24T16:59:02.985Z,4.40
2023-11-24T17:01:30.894Z,4.40
2023-11-24T17:03:59.617Z,4.30
2023-11-24T17:06:27.833Z,4.20
2023-11-24T17:08:54.770Z,4.20
2023-11-24T17:11:21.834Z,4.10
2023-11-24T17:13:48.920Z,4.00
2023-11-24T17:16:16.352Z,3.90
2023-11-24T17:18:43.538Z,3.90
2023-11-24T17:21:10.463Z,3.80
2023-11-24T17:23:41.601Z,3.90
2023-11-24T17:26:11.086Z,3.90
2023-11-24T17:28:38.710Z,3.90
2023-11-24T17:31:09.281Z,3.90
2023-11-24T17:33:41.145Z,3.90
2023-11-24T17:36:09.405Z,3.90
2023-11-24T17:38:36.656Z,3.90
2023-11-24T17:41:06.266Z,3.90
2023-11-24T17:43:33.210Z,3.90
2023-11-24T17:46:00.289Z,3.90
2023-11-24T17:48:27.334Z,3.90
2023-11-24T17:50:54.257Z,3.90
2023-11-24T17:53:21.625Z,3.90
2023-11-24T17:55:48.587Z,3.90
2023-11-24T17:58:15.476Z,3.90
2023-11-24T18:00:42.835Z,3.90
2023-11-24T18:03:09.821Z,3.90
2023-11-24T18:05:37.092Z,3.90
2023-11-24T18:08:05.264Z,3.90
2023-11-24T18:10:33.160Z,3.90
2023-11-24T18:13:00.295Z,3.90
2023-11-24T18:15:28.153Z,4.00
2023-11-24T18:17:55.225Z,4.00
2023-11-24T18:20:22.743Z,4.00
2023-11-24T18:22:49.704Z,4.00
2023-11-24T18:25:16.830Z,4.00
2023-11-24T18:27:44.712Z,4.00
2023-11-24T18:30:12.418Z,4.00
2023-11-24T18:32:40.100Z,4.00
2023-11-24T18:35:09.451Z,4.00
2023-11-24T18:37:36.369Z,4.00
2023-11-24T18:40:05.063Z,4.00
2023-11-24T18:42:33.603Z,4.00
2023-11-24T18:45:00.649Z,4.00
2023-11-24T18:47:27.791Z,3.90
2023-11-24T18:49:55.177Z,3.90
2023-11-24T18:52:23.779Z,3.90
2023-11-24T18:54:52.670Z,3.80
2023-11-24T18:57:19.719Z,3.90
2023-11-24T18:59:46.585Z,3.90
2023-11-24T19:02:16.101Z,3.90
2023-11-24T19:04:43.377Z,3.90
2023-11-24T19:07:10.572Z,3.90
2023-11-24T19:09:37.507Z,4.00
2023-11-24T19:12:04.841Z,4.00
2023-11-24T19:14:31.836Z,4.00
2023-11-24T19:16:58.887Z,4.10
2023-11-24T19:19:26.162Z,4.10
2023-11-24T19:21:53.288Z,4.10
2023-11-24T19:24:20.247Z,4.00
2023-11-24T19:26:47.305Z,4.00
2023-11-24T19:29:14.203Z,4.00
2023-11-24T19:31:41.489Z,3.90
2023-11-24T19:34:09.357Z,3.80
2023-11-24T19:36:37.056Z,3.70
2023-11-24T19:39:05.868Z,3.70
2023-11-24T19:41:32.901Z,3.60
2023-11-24T19:43:59.870Z,3.60
2023-11-24T19:46:26.951Z,3.60
2023-11-24T19:48:54.105Z,3.70
2023-11-24T19:51:21.240Z,3.70
2023-11-24T19:53:49.987Z,3.60
2023-11-24T19:56:18.938Z,3.70
2023-11-24T19:58:46.014Z,3.60
2023-11-24T20:01:19.660Z,3.60
2023-11-24T20:03:46.747Z,3.60
2023-11-24T20:06:13.804Z,3.60
2023-11-24T20:08:40.830Z,3.50
2023-11-24T20:11:09.538Z,3.50
2023-11-24T20:13:36.683Z,3.50
2023-11-24T20:16:03.861Z,3.50
2023-11-24T20:18:31.585Z,3.50
2023-11-24T20:20:58.530Z,3.40
2023-11-24T20:23:26.006Z,3.40
2023-11-24T20:25:52.998Z,3.40
2023-11-24T20:28:19.985Z,3.40
2023-11-24T20:30:46.933Z,3.40
2023-11-24T20:33:14.055Z,3.40
2023-11-24T20:35:41.684Z,3.40
2023-11-24T20:38:08.574Z,3.40
2023-11-24T20:40:35.687Z,3.40
2023-11-24T20:43:05.309Z,3.40
2023-11-24T20:45:32.406Z,3.40
2023-11-24T20:47:59.578Z,3.40
2023-11-24T20:50:26.620Z,3.40
2023-11-24T20:52:53.578Z,3.40
2023-11-24T20:55:20.572Z,3.40
2023-11-24T20:57:47.824Z,3.40
2023-11-24T21:00:16.765Z,3.40
2023-11-24T21:02:46.615Z,3.40
2023-11-24T21:05:13.617Z,3.40
2023-11-24T21:07:40.870Z,3.30
2023-11-24T21:10:09.094Z,3.30
2023-11-24T21:12:42.302Z,3.30
2023-11-24T21:15:11.079Z,3.20
2023-11-24T21:17:38.424Z,3.20
2023-11-24T21:20:07.325Z,3.10
2023-11-24T21:22:35.030Z,3.10
2023-11-24T21:25:02.720Z,3.10
2023-11-24T21:27:30.304Z,3.10
2023-11-24T21:29:57.173Z,3.10
2023-11-24T21:32:24.169Z,3.10
2023-11-24T21:34:51.067Z,3.00
2023-11-24T21:37:18.050Z,3.00
2023-11-24T21:39:48.081Z,3.00
2023-11-24T21:42:16.305Z,3.00
2023-11-24T21:44:45.362Z,3.00
2023-11-24T21:47:13.112Z,3.00
2023-11-24T21:49:40.081Z,3.00
2023-11-24T21:52:07.136Z,3.00
2023-11-24T21:54:34.004Z,3.00
2023-11-24T21:57:01.562Z,3.10
2023-11-24T21:59:28.357Z,3.10
2023-11-24T22:01:58.401Z,3.10
2023-11-24T22:04:25.606Z,3.10
2023-11-24T22:06:52.567Z,3.10
2023-11-24T22:09:20.681Z,3.00
2023-11-24T22:11:47.999Z,3.10
2023-11-24T22:14:15.426Z,3.00
2023-11-24T22:16:42.376Z,3.00
2023-11-24T22:19:09.541Z,3.00
2023-11-24T22:21:37.236Z,3.00
2023-11-24T22:24:07.494Z,3.00
2023-11-24T22:26:34.550Z,2.90
2023-11-24T22:29:04.027Z,2.90
2023-11-24T22:31:31.333Z,2.90
2023-11-24T22:33:58.290Z,2.90
2023-11-24T22:36:25.302Z,2.80
2023-11-24T22:38:52.513Z,2.80
2023-11-24T23:14:04.775Z,1.90
2023-11-24T23:16:34.904Z,1.90
2023-11-24T23:19:04.795Z,1.90
2023-11-24T23:21:32.457Z,1.90
2023-11-24T23:23:59.581Z,1.90
2023-11-24T23:26:26.581Z,1.90
2023-11-24T23:28:53.572Z,1.90
2023-11-24T23:31:20.784Z,1.90
2023-11-24T23:33:48.357Z,1.90
2023-11-24T23:36:16.620Z,1.90
2023-11-24T23:38:45.336Z,1.90
2023-11-24T23:41:12.515Z,1.90
2023-11-24T23:43:39.509Z,2.00
2023-11-24T23:46:07.069Z,2.00
2023-11-24T23:48:34.522Z,2.10
2023-11-24T23:51:01.543Z,2.10
2023-11-24T23:53:29.278Z,2.10
2023-11-24T23:55:57.913Z,2.10
2023-11-24T23:58:26.771Z,2.10
